Time;durP1;ratioP1;P1;durP2;ratioP2;P2;SDS_P1;SDS_P2;PMS_P1;PMS_P2;Temp;Humidity;BMP_temperature;BMP_pressure;BME280_temperature;BME280_humidity;BME280_pressure;Samples;Min_cycle;Max_cycle;Signal;HPM_P1;HPM_P2
2022/11/28 00:01:34;;;;;;;12.27;7.28;;;4.10;99.90;;;;;;5075168;27;20032;-68
2022/11/28 00:04:00;;;;;;;11.68;7.30;;;4.00;99.90;;;;;;5078191;28;20105;-68
2022/11/28 00:06:27;;;;;;;9.63;6.65;;;4.10;99.90;;;;;;5079996;28;20044;-69
2022/11/28 00:08:53;;;;;;;11.65;7.20;;;4.20;99.90;;;;;;5082383;28;20042;-69
2022/11/28 00:11:19;;;;;;;11.68;7.43;;;4.20;99.90;;;;;;5084765;28;20067;-69
2022/11/28 00:13:45;;;;;;;12.55;6.35;;;4.20;99.90;;;;;;5076724;28;20048;-68
2022/11/28 00:16:16;;;;;;;11.63;7.25;;;4.20;99.90;;;;;;5079677;28;20044;-68
2022/11/28 00:18:42;;;;;;;10.02;6.68;;;4.10;99.90;;;;;;5069179;28;20045;-69
2022/11/28 00:21:11;;;;;;;13.15;7.63;;;4.00;99.90;;;;;;5066048;28;20036;-69
2022/11/28 00:23:37;;;;;;;13.82;7.75;;;4.00;99.90;;;;;;5066958;28;20044;-68
2022/11/28 00:26:06;;;;;;;15.50;8.93;;;4.00;99.90;;;;;;5065379;28;20033;-70
2022/11/28 00:28:33;;;;;;;14.45;8.95;;;4.00;99.90;;;;;;5067785;28;20040;-68
2022/11/28 00:30:58;;;;;;;14.40;9.30;;;3.90;99.90;;;;;;5065323;28;20386;-68
2022/11/28 00:33:24;;;;;;;15.48;9.13;;;3.90;99.90;;;;;;5062829;28;20109;-68
2022/11/28 00:35:50;;;;;;;15.30;8.80;;;3.70;99.90;;;;;;5064262;28;20048;-68
2022/11/28 00:38:15;;;;;;;15.95;8.18;;;3.80;99.90;;;;;;5067564;28;20083;-67
2022/11/28 00:40:41;;;;;;;17.80;8.68;;;3.80;99.90;;;;;;5071932;28;20041;-68
2022/11/28 00:43:07;;;;;;;14.75;7.63;;;3.90;99.90;;;;;;5067060;28;20036;-68
2022/11/28 00:45:32;;;;;;;17.08;9.85;;;3.90;99.90;;;;;;5065345;28;20044;-68
2022/11/28 00:47:58;;;;;;;16.60;8.93;;;3.90;99.90;;;;;;5067033;28;20044;-69
2022/11/28 00:50:24;;;;;;;14.45;8.60;;;3.90;99.90;;;;;;5066644;28;20059;-68
2022/11/28 00:52:50;;;;;;;15.40;8.43;;;3.90;99.90;;;;;;5066445;28;20080;-68
2022/11/28 00:55:15;;;;;;;12.52;7.85;;;3.90;99.90;;;;;;5063479;28;20591;-69
2022/11/28 00:57:41;;;;;;;14.30;8.10;;;3.90;99.90;;;;;;5061251;28;20357;-68
2022/11/28 01:00:07;;;;;;;13.50;8.82;;;3.90;99.90;;;;;;5067928;28;20040;-67
2022/11/28 01:02:33;;;;;;;16.92;8.07;;;3.90;99.90;;;;;;5065260;28;20131;-67
2022/11/28 01:04:59;;;;;;;13.35;8.20;;;3.90;99.90;;;;;;5066477;28;20139;-68
2022/11/28 01:07:27;;;;;;;15.02;8.00;;;4.00;99.90;;;;;;5065660;28;20209;-68
2022/11/28 01:09:54;;;;;;;11.73;6.88;;;4.00;99.90;;;;;;5071948;28;20562;-68
2022/11/28 01:12:19;;;;;;;10.93;7.32;;;4.00;99.90;;;;;;5063746;28;20078;-68
2022/11/28 01:14:45;;;;;;;11.68;7.25;;;4.00;99.90;;;;;;5065719;28;20044;-68
2022/11/28 01:17:11;;;;;;;14.15;7.40;;;4.00;99.90;;;;;;5064462;28;20090;-68
2022/11/28 01:19:37;;;;;;;13.20;7.50;;;4.00;99.90;;;;;;5067366;28;20107;-68
2022/11/28 01:22:05;;;;;;;12.52;7.18;;;4.10;99.90;;;;;;5064691;28;20104;-68
2022/11/28 01:24:31;;;;;;;11.95;6.95;;;4.10;99.90;;;;;;5066231;28;20037;-68
2022/11/28 01:26:57;;;;;;;15.02;7.35;;;4.10;99.90;;;;;;5064558;28;20071;-68
2022/11/28 01:29:22;;;;;;;12.68;7.80;;;4.20;99.90;;;;;;5061908;28;20075;-69
2022/11/28 01:31:48;;;;;;;11.43;6.90;;;4.10;99.90;;;;;;5063754;28;20399;-69
2022/11/28 01:34:14;;;;;;;15.35;8.07;;;4.20;99.90;;;;;;5065857;28;20094;-68
2022/11/28 01:36:39;;;;;;;11.38;6.80;;;4.20;99.90;;;;;;5063786;28;20090;-67
2022/11/28 01:39:05;;;;;;;12.55;6.65;;;4.10;99.90;;;;;;5065931;28;20531;-68
2022/11/28 01:41:31;;;;;;;14.35;7.70;;;4.20;99.90;;;;;;5069199;28;20132;-68
2022/11/28 01:44:07;;;;;;;11.88;7.03;;;4.20;99.90;;;;;;5063717;28;20829;-69
2022/11/28 01:46:35;;;;;;;10.90;7.07;;;4.20;99.90;;;;;;5064927;28;20576;-68
2022/11/28 01:49:13;;;;;;;11.18;6.85;;;4.30;99.90;;;;;;5067070;28;20037;-67
2022/11/28 01:51:43;;;;;;;10.95;7.25;;;4.30;99.90;;;;;;5064515;28;20047;-69
2022/11/28 01:54:10;;;;;;;10.30;6.88;;;4.30;99.90;;;;;;5063413;28;20128;-68
2022/11/28 01:56:51;;;;;;;10.73;6.82;;;4.30;99.90;;;;;;5061972;28;20055;-68
2022/11/28 01:59:19;;;;;;;9.15;5.60;;;4.30;99.90;;;;;;5061518;28;20044;-68
2022/11/28 02:01:45;;;;;;;12.25;6.88;;;4.40;99.90;;;;;;5062518;28;20410;-69
2022/11/28 02:04:13;;;;;;;13.90;6.90;;;4.30;99.90;;;;;;5063488;28;20060;-67
2022/11/28 02:06:39;;;;;;;13.38;6.63;;;4.30;99.90;;;;;;5073013;28;20079;-68
2022/11/28 02:09:14;;;;;;;12.43;6.57;;;4.30;99.90;;;;;;5064864;28;20040;-68
2022/11/28 02:12:07;;;;;;;13.57;6.35;;;4.30;99.90;;;;;;5068643;28;20033;-68
2022/11/28 02:14:53;;;;;;;11.07;6.55;;;4.30;99.90;;;;;;5064827;28;20051;-68
2022/11/28 02:17:46;;;;;;;10.48;6.90;;;4.40;99.90;;;;;;5059519;28;20563;-69
2022/11/28 02:20:23;;;;;;;12.13;6.90;;;4.30;99.90;;;;;;5065671;28;20040;-69
2022/11/28 02:22:51;;;;;;;11.57;6.82;;;4.30;99.90;;;;;;5063436;28;20035;-68
2022/11/28 02:26:08;;;;;;;11.85;6.57;;;4.20;99.90;;;;;;5064583;28;20523;-67
2022/11/28 02:29:02;;;;;;;8.65;5.75;;;4.20;99.90;;;;;;5039512;28;20052;-68
2022/11/28 02:31:49;;;;;;;15.73;7.38;;;4.20;99.90;;;;;;5056006;28;20522;-68
2022/11/28 02:34:32;;;;;;;12.85;7.10;;;4.10;99.90;;;;;;5061929;28;20039;-69
2022/11/28 02:37:25;;;;;;;11.70;7.53;;;4.10;99.90;;;;;;5059548;28;20057;-69
2022/11/28 02:40:09;;;;;;;12.77;7.15;;;4.00;99.90;;;;;;5069986;28;20040;-68
2022/11/28 02:43:03;;;;;;;16.25;7.07;;;4.10;99.90;;;;;;5062594;28;20162;-68
2022/11/28 02:45:29;;;;;;;11.27;7.13;;;4.10;99.90;;;;;;5057461;28;20044;-68
2022/11/28 02:48:09;;;;;;;11.38;7.20;;;4.10;99.90;;;;;;5065189;28;20051;-68
2022/11/28 02:51:02;;;;;;;10.60;6.22;;;4.10;99.90;;;;;;5062455;28;20480;-68
2022/11/28 02:53:30;;;;;;;15.82;7.28;;;4.10;99.90;;;;;;5061462;28;20041;-68
2022/11/28 02:55:56;;;;;;;11.23;6.50;;;4.10;99.90;;;;;;5063703;28;20067;-68
2022/11/28 02:58:22;;;;;;;9.32;6.22;;;4.10;99.90;;;;;;5060809;28;20043;-68
2022/11/28 03:00:49;;;;;;;13.40;6.82;;;4.20;99.90;;;;;;5058758;28;20029;-69
2022/11/28 03:03:27;;;;;;;13.13;7.03;;;4.20;99.90;;;;;;5064443;28;20036;-68
2022/11/28 03:05:56;;;;;;;10.27;6.72;;;4.20;99.90;;;;;;5062164;28;20537;-67
2022/11/28 03:09:11;;;;;;;13.57;6.97;;;4.20;99.90;;;;;;5065222;28;20032;-68
2022/11/28 03:11:57;;;;;;;11.85;6.72;;;4.20;99.90;;;;;;5001475;28;20041;-70
2022/11/28 03:14:52;;;;;;;12.10;6.82;;;4.20;99.90;;;;;;5060650;28;20690;-69
2022/11/28 03:17:32;;;;;;;11.43;7.18;;;4.20;99.90;;;;;;5056687;28;20446;-68
2022/11/28 03:20:39;;;;;;;9.73;6.20;;;4.20;99.90;;;;;;5059288;28;20028;-69
2022/11/28 03:23:18;;;;;;;13.15;5.43;;;4.20;99.90;;;;;;5049245;28;20290;-67
2022/11/28 03:25:55;;;;;;;17.50;5.75;;;4.20;99.90;;;;;;5090731;28;20106;-69
2022/11/28 03:28:26;;;;;;;10.38;6.13;;;4.20;99.90;;;;;;5061553;28;20047;-67
2022/11/28 03:31:02;;;;;;;10.48;6.30;;;4.30;99.90;;;;;;5061017;28;20098;-68
2022/11/28 03:33:32;;;;;;;11.75;5.75;;;4.40;99.90;;;;;;5064242;28;20039;-68
2022/11/28 03:36:15;;;;;;;12.75;5.82;;;4.40;99.90;;;;;;5061349;28;20136;-68
2022/11/28 03:38:48;;;;;;;10.50;6.45;;;4.40;99.90;;;;;;5064002;28;20139;-68
2022/11/28 03:41:38;;;;;;;12.55;6.20;;;4.40;99.90;;;;;;5065657;28;20036;-68
2022/11/28 03:44:09;;;;;;;12.95;7.43;;;4.40;99.90;;;;;;5062305;28;20045;-67
2022/11/28 03:46:40;;;;;;;12.98;6.43;;;4.50;99.90;;;;;;5061966;28;20139;-68
2022/11/28 03:49:08;;;;;;;11.52;6.97;;;4.40;99.90;;;;;;5064071;28;20033;-68
2022/11/28 03:51:58;;;;;;;13.57;7.05;;;4.40;99.90;;;;;;5061882;28;20119;-68
2022/11/28 03:54:31;;;;;;;11.65;6.60;;;4.40;99.90;;;;;;5063809;28;20051;-68
2022/11/28 03:57:09;;;;;;;12.68;6.75;;;4.40;99.90;;;;;;5064257;28;20048;-68
2022/11/28 03:59:36;;;;;;;10.88;6.97;;;4.40;99.90;;;;;;5067964;28;20400;-67
2022/11/28 04:02:38;;;;;;;11.65;7.38;;;4.40;99.90;;;;;;5064073;28;20116;-67
2022/11/28 04:05:43;;;;;;;12.23;6.70;;;4.40;99.90;;;;;;5064822;28;20095;-68
2022/11/28 04:08:21;;;;;;;10.73;6.25;;;4.40;99.90;;;;;;5068019;28;20044;-68
2022/11/28 04:11:00;;;;;;;11.73;7.03;;;4.40;99.90;;;;;;5070558;28;20036;-69
2022/11/28 04:13:39;;;;;;;14.30;7.63;;;4.40;99.90;;;;;;5061089;28;20101;-68
2022/11/28 04:16:18;;;;;;;13.13;7.82;;;4.40;99.90;;;;;;5065845;28;20041;-68
2022/11/28 04:18:50;;;;;;;12.70;6.97;;;4.40;99.90;;;;;;5065554;28;20036;-69
2022/11/28 04:21:31;;;;;;;11.25;6.95;;;4.50;99.90;;;;;;5067234;28;20041;-68
2022/11/28 04:24:02;;;;;;;14.40;8.70;;;4.50;99.90;;;;;;5065701;28;20045;-69
2022/11/28 04:26:44;;;;;;;17.42;9.82;;;4.40;99.90;;;;;;5064602;28;20051;-70
2022/11/28 04:29:13;;;;;;;12.77;7.47;;;4.40;99.90;;;;;;5068586;28;20090;-69
2022/11/28 04:31:43;;;;;;;13.13;8.90;;;4.40;99.90;;;;;;5059337;28;20067;-70
2022/11/28 04:34:14;;;;;;;14.95;9.38;;;4.40;99.90;;;;;;5065037;28;20131;-69
2022/11/28 04:36:43;;;;;;;14.85;9.13;;;4.30;99.90;;;;;;5064672;28;20052;-68
2022/11/28 04:39:14;;;;;;;16.92;10.05;;;4.20;99.90;;;;;;5067824;28;20051;-68
2022/11/28 04:41:49;;;;;;;19.05;11.10;;;4.10;99.90;;;;;;5067280;28;20059;-69
2022/11/28 04:44:21;;;;;;;20.05;11.30;;;4.00;99.90;;;;;;5066099;28;20032;-70
2022/11/28 04:46:54;;;;;;;15.48;9.57;;;4.00;99.90;;;;;;5065559;28;20045;-68
2022/11/28 04:49:21;;;;;;;18.85;10.15;;;3.90;99.90;;;;;;5063030;28;20051;-68
2022/11/28 04:52:03;;;;;;;16.95;9.82;;;4.00;99.90;;;;;;5064962;28;20068;-67
2022/11/28 04:54:55;;;;;;;21.58;8.88;;;4.00;99.90;;;;;;5061334;28;20114;-69
2022/11/28 04:57:28;;;;;;;14.90;9.10;;;4.10;99.90;;;;;;5058002;28;20126;-69
2022/11/28 04:59:55;;;;;;;15.68;8.65;;;4.10;99.90;;;;;;5064905;28;20044;-68
2022/11/28 05:02:23;;;;;;;14.85;9.02;;;4.10;99.90;;;;;;5064872;28;20035;-68
2022/11/28 05:04:51;;;;;;;18.92;11.10;;;4.10;99.90;;;;;;5065202;28;20421;-69
2022/11/28 05:07:17;;;;;;;15.50;9.23;;;4.10;99.90;;;;;;5065281;28;20044;-68
2022/11/28 05:09:42;;;;;;;13.23;9.15;;;4.10;99.90;;;;;;5072157;28;20061;-68
2022/11/28 05:12:08;;;;;;;16.00;9.77;;;4.10;99.90;;;;;;5066591;28;20052;-69
2022/11/28 05:14:34;;;;;;;15.18;9.13;;;4.10;99.90;;;;;;5061792;28;20606;-69
2022/11/28 05:16:59;;;;;;;16.98;9.98;;;4.20;99.90;;;;;;5065380;28;20059;-68
2022/11/28 05:19:25;;;;;;;15.80;10.05;;;4.20;99.90;;;;;;5067570;28;20071;-69
2022/11/28 05:21:52;;;;;;;19.73;10.43;;;4.20;99.90;;;;;;5065842;28;20032;-68
2022/11/28 05:24:18;;;;;;;16.15;9.48;;;4.10;99.90;;;;;;5065351;28;20492;-68
2022/11/28 05:26:43;;;;;;;19.08;11.55;;;4.10;99.90;;;;;;5061763;28;20049;-69
2022/11/28 05:29:09;;;;;;;16.48;10.40;;;4.10;99.90;;;;;;5065960;28;20032;-69
2022/11/28 05:31:36;;;;;;;17.65;10.18;;;4.10;99.90;;;;;;5063867;28;20124;-69
2022/11/28 05:34:02;;;;;;;15.63;9.82;;;4.10;99.90;;;;;;5065163;28;20040;-69
2022/11/28 05:36:28;;;;;;;16.95;9.65;;;4.10;99.90;;;;;;5060633;28;20044;-69
2022/11/28 05:38:55;;;;;;;16.85;9.60;;;4.10;99.90;;;;;;5065312;28;20039;-68
2022/11/28 05:41:22;;;;;;;14.80;9.27;;;4.10;99.90;;;;;;5068713;28;20072;-69
2022/11/28 05:43:48;;;;;;;17.80;9.98;;;4.20;99.90;;;;;;5065226;28;20670;-69
2022/11/28 05:46:14;;;;;;;15.65;9.35;;;4.10;99.90;;;;;;5061679;28;20040;-70
2022/11/28 05:48:39;;;;;;;16.85;10.38;;;4.10;99.90;;;;;;5062401;28;20124;-67
2022/11/28 05:51:05;;;;;;;17.55;10.23;;;4.20;99.90;;;;;;5063331;28;20111;-68
2022/11/28 05:53:31;;;;;;;15.95;9.95;;;4.10;99.90;;;;;;5066251;28;20033;-69
2022/11/28 05:55:57;;;;;;;20.95;9.35;;;4.10;99.90;;;;;;5062031;28;20043;-68
2022/11/28 05:58:23;;;;;;;16.17;9.27;;;4.10;99.90;;;;;;5059623;28;20146;-68
2022/11/28 06:00:48;;;;;;;15.18;10.32;;;4.10;99.90;;;;;;5061582;28;20036;-67
2022/11/28 06:03:14;;;;;;;16.58;10.23;;;4.10;99.90;;;;;;5066359;28;20036;-68
2022/11/28 06:05:42;;;;;;;16.95;10.10;;;4.00;99.90;;;;;;5062633;28;20183;-70
2022/11/28 06:08:08;;;;;;;14.07;9.70;;;4.00;99.90;;;;;;5062418;28;20037;-67
2022/11/28 06:10:34;;;;;;;16.17;9.60;;;4.00;99.90;;;;;;5069860;28;20036;-62
2022/11/28 06:13:01;;;;;;;16.02;9.50;;;4.00;99.90;;;;;;5066179;28;20063;-63
2022/11/28 06:15:29;;;;;;;17.55;9.27;;;4.00;99.90;;;;;;5060769;28;20033;-70
2022/11/28 06:17:55;;;;;;;19.85;9.93;;;4.00;99.90;;;;;;5058935;28;20067;-69
2022/11/28 06:20:20;;;;;;;13.63;9.05;;;4.00;99.90;;;;;;5065681;28;20492;-68
2022/11/28 06:22:46;;;;;;;14.00;8.77;;;4.00;99.90;;;;;;5062857;28;20177;-69
2022/11/28 06:25:12;;;;;;;15.48;9.43;;;4.00;99.90;;;;;;5062971;28;20046;-69
2022/11/28 06:27:38;;;;;;;15.20;9.13;;;4.00;99.90;;;;;;5062852;28;20037;-70
2022/11/28 06:30:05;;;;;;;14.43;8.18;;;4.00;99.90;;;;;;5065376;28;20050;-64
2022/11/28 06:32:31;;;;;;;15.38;8.85;;;4.00;99.90;;;;;;5062465;28;21329;-70
2022/11/28 06:34:57;;;;;;;14.75;8.60;;;4.00;99.90;;;;;;5063280;28;20976;-69
2022/11/28 06:37:22;;;;;;;12.77;7.43;;;4.10;99.90;;;;;;5061069;28;20048;-69
2022/11/28 06:39:50;;;;;;;14.18;8.77;;;4.10;99.90;;;;;;5067873;28;20039;-67
2022/11/28 06:42:16;;;;;;;14.65;8.85;;;4.10;99.90;;;;;;5061261;28;20069;-66
2022/11/28 06:44:42;;;;;;;15.18;8.05;;;4.10;99.90;;;;;;5063313;28;20635;-67
2022/11/28 06:47:07;;;;;;;13.63;8.10;;;4.10;99.90;;;;;;5063500;28;20128;-68
2022/11/28 06:49:34;;;;;;;12.80;7.45;;;4.10;99.90;;;;;;5065032;28;20076;-69
2022/11/28 06:52:00;;;;;;;15.27;8.07;;;4.10;99.90;;;;;;5063541;28;20044;-71
2022/11/28 06:54:25;;;;;;;13.43;8.23;;;4.10;99.90;;;;;;5064091;28;20512;-70
2022/11/28 06:56:51;;;;;;;19.23;7.95;;;4.10;99.90;;;;;;5060113;28;20136;-70
2022/11/28 06:59:17;;;;;;;16.45;9.50;;;4.10;99.90;;;;;;5062620;28;20127;-69
2022/11/28 07:01:42;;;;;;;12.45;7.65;;;4.10;99.90;;;;;;5058872;28;20123;-70
2022/11/28 07:04:09;;;;;;;13.05;7.93;;;4.20;99.90;;;;;;5064404;28;20456;-70
2022/11/28 07:06:34;;;;;;;11.82;7.20;;;4.20;99.90;;;;;;5062193;28;20435;-69
2022/11/28 07:09:00;;;;;;;14.70;7.30;;;4.20;99.90;;;;;;5062866;28;20526;-70
2022/11/28 07:11:29;;;;;;;13.43;7.03;;;4.30;99.90;;;;;;5063758;28;20047;-68
2022/11/28 07:13:56;;;;;;;11.15;6.28;;;4.30;99.90;;;;;;5054166;28;20094;-69
2022/11/28 07:16:32;;;;;;;11.38;6.65;;;4.30;99.90;;;;;;5062109;28;20040;-69
2022/11/28 07:18:58;;;;;;;14.13;7.45;;;4.40;99.90;;;;;;5062354;28;20040;-67
2022/11/28 07:21:25;;;;;;;14.20;7.18;;;4.40;99.90;;;;;;5057891;28;20050;-72
2022/11/28 07:23:52;;;;;;;11.73;6.68;;;4.40;99.90;;;;;;5063758;28;20044;-71
2022/11/28 07:26:20;;;;;;;15.23;7.07;;;4.40;99.90;;;;;;5058802;28;20116;-69
2022/11/28 07:28:46;;;;;;;11.05;6.03;;;4.40;99.90;;;;;;5061786;28;20044;-69
2022/11/28 07:31:27;;;;;;;11.50;6.70;;;4.50;99.90;;;;;;5065601;28;20491;-67
2022/11/28 07:33:53;;;;;;;12.38;6.50;;;4.50;99.90;;;;;;5064852;28;20131;-67
2022/11/28 07:36:22;;;;;;;12.85;6.97;;;4.50;99.90;;;;;;5065280;28;20123;-68
2022/11/28 07:38:50;;;;;;;13.57;7.43;;;4.50;99.90;;;;;;5067605;28;20403;-67
2022/11/28 07:41:16;;;;;;;15.32;7.05;;;4.50;99.90;;;;;;5069886;28;20040;-67
2022/11/28 07:43:43;;;;;;;13.02;7.57;;;4.40;99.90;;;;;;5067785;28;20067;-68
2022/11/28 07:46:11;;;;;;;14.20;7.13;;;4.50;99.90;;;;;;5064758;28;20091;-68
2022/11/28 07:48:37;;;;;;;11.85;7.18;;;4.50;99.90;;;;;;5067074;28;20072;-68
2022/11/28 07:51:09;;;;;;;16.90;7.90;;;4.50;99.90;;;;;;5065120;28;20064;-68
2022/11/28 07:53:36;;;;;;;11.32;6.75;;;4.50;99.90;;;;;;5067690;28;20044;-69
2022/11/28 07:56:04;;;;;;;9.85;5.93;;;4.50;99.90;;;;;;5066244;28;20515;-69
2022/11/28 07:58:30;;;;;;;9.93;6.43;;;4.60;99.90;;;;;;5066684;28;20040;-69
2022/11/28 08:00:56;;;;;;;11.88;5.60;;;4.60;99.90;;;;;;5063211;28;20041;-69
2022/11/28 08:03:22;;;;;;;10.65;5.93;;;4.60;99.90;;;;;;5063405;28;20488;-69
2022/11/28 08:05:48;;;;;;;13.13;6.20;;;4.60;99.90;;;;;;5062422;28;20588;-70
2022/11/28 08:08:18;;;;;;;17.25;7.55;;;4.60;99.90;;;;;;5060907;28;20041;-68
2022/11/28 08:10:44;;;;;;;9.48;6.38;;;4.70;99.90;;;;;;5070620;28;20037;-70
2022/11/28 08:13:11;;;;;;;11.07;6.47;;;4.70;99.90;;;;;;5063947;28;20504;-69
2022/11/28 08:15:39;;;;;;;13.05;7.15;;;4.70;99.90;;;;;;5065167;28;20068;-69
2022/11/28 08:18:05;;;;;;;10.93;6.18;;;4.70;99.90;;;;;;5059858;28;20079;-71
2022/11/28 08:20:31;;;;;;;14.77;6.40;;;4.70;99.90;;;;;;5097959;28;20045;-70
2022/11/28 08:22:57;;;;;;;12.07;6.97;;;4.80;99.90;;;;;;5065479;28;20043;-70
2022/11/28 08:25:22;;;;;;;;;;;4.70;99.90;;;;;;5067844;28;20036;-70
2022/11/28 08:27:48;;;;;;;11.05;6.70;;;4.80;99.90;;;;;;5068869;28;19970;-70
2022/11/28 08:30:14;;;;;;;13.52;7.68;;;4.80;99.90;;;;;;5092947;28;20033;-69
2022/11/28 08:32:40;;;;;;;12.35;7.50;;;4.80;99.90;;;;;;5063319;28;20029;-69
2022/11/28 08:35:06;;;;;;;10.70;7.05;;;4.80;99.90;;;;;;5065026;28;20389;-69
2022/11/28 08:37:31;;;;;;;13.48;7.70;;;4.90;99.90;;;;;;5065113;28;20194;-70
2022/11/28 08:39:57;;;;;;;13.52;6.68;;;4.90;99.90;;;;;;5069119;28;20522;-70
2022/11/28 08:42:23;;;;;;;;;;;4.90;99.90;;;;;;5066106;28;20044;-70
2022/11/28 08:44:48;;;;;;;15.25;7.70;;;5.00;99.90;;;;;;5066017;28;19970;-70
2022/11/28 08:47:14;;;;;;;14.07;7.80;;;5.00;99.90;;;;;;5065835;28;20090;-70
2022/11/28 08:49:40;;;;;;;11.48;7.03;;;4.90;99.90;;;;;;5064314;28;20052;-70
2022/11/28 08:52:06;;;;;;;14.18;7.18;;;5.00;99.90;;;;;;5065019;28;20041;-69
2022/11/28 08:54:32;;;;;;;11.68;7.15;;;5.00;99.90;;;;;;5066430;28;20076;-70
2022/11/28 08:56:57;;;;;;;;;;;5.00;99.90;;;;;;5065232;28;20044;-69
2022/11/28 08:59:24;;;;;;;14.45;8.05;;;5.10;99.90;;;;;;5063055;28;20302;-70
2022/11/28 09:01:53;;;;;;;16.25;9.98;;;5.00;99.90;;;;;;5063110;28;20054;-70
2022/11/28 09:04:19;;;;;;;14.88;9.05;;;4.90;99.90;;;;;;5061260;28;20089;-68
2022/11/28 09:06:45;;;;;;;15.63;9.25;;;4.90;99.90;;;;;;5060406;28;20049;-70
2022/11/28 09:09:11;;;;;;;13.20;8.38;;;4.90;99.90;;;;;;5066818;28;20504;-71
2022/11/28 09:11:37;;;;;;;;;;;5.00;99.90;;;;;;5070206;28;20036;-70
2022/11/28 09:14:02;;;;;;;15.60;8.77;;;4.90;99.90;;;;;;5065947;28;20440;-69
2022/11/28 09:16:28;;;;;;;13.70;8.95;;;4.90;99.90;;;;;;5063955;28;20595;-72
2022/11/28 09:18:56;;;;;;;;;;;4.90;99.90;;;;;;5064999;28;20105;-70
2022/11/28 09:21:22;;;;;;;17.38;10.27;;;4.90;99.90;;;;;;5064652;28;19924;-69
2022/11/28 09:23:48;;;;;;;16.83;9.52;;;4.80;99.90;;;;;;5063576;28;20047;-68
2022/11/28 09:26:16;;;;;;;15.65;9.65;;;4.80;99.90;;;;;;5060873;28;20040;-71
2022/11/28 09:28:42;;;;;;;15.65;8.95;;;4.90;99.90;;;;;;5065019;28;20105;-69
2022/11/28 09:31:10;;;;;;;15.07;9.05;;;4.80;99.90;;;;;;5061502;28;20041;-68
2022/11/28 09:33:35;;;;;;;14.38;8.70;;;4.90;99.90;;;;;;5057118;28;20399;-69
2022/11/28 09:36:18;;;;;;;15.73;9.38;;;5.00;99.90;;;;;;5061234;28;20131;-70
2022/11/28 09:38:45;;;;;;;15.18;8.63;;;5.00;99.90;;;;;;5091219;28;20045;-69
2022/11/28 09:41:28;;;;;;;14.70;9.15;;;5.00;99.90;;;;;;5063826;28;20062;-69
2022/11/28 09:43:59;;;;;;;14.82;8.27;;;5.00;99.90;;;;;;5061120;28;20443;-68
2022/11/28 09:46:28;;;;;;;13.73;8.25;;;5.10;99.90;;;;;;5096534;28;20071;-69
2022/11/28 09:48:59;;;;;;;12.43;8.38;;;5.10;99.90;;;;;;5062722;28;20040;-69
2022/11/28 09:51:28;;;;;;;13.20;8.48;;;5.20;99.90;;;;;;5062012;28;20059;-70
2022/11/28 09:54:13;;;;;;;16.13;8.98;;;5.10;99.90;;;;;;5064525;28;20678;-70
2022/11/28 09:56:39;;;;;;;14.48;9.05;;;5.10;99.90;;;;;;5063511;28;20041;-69
2022/11/28 09:59:22;;;;;;;13.15;8.45;;;5.10;99.90;;;;;;5064289;28;20052;-69
2022/11/28 10:02:00;;;;;;;12.45;8.10;;;5.20;99.90;;;;;;5062177;28;20482;-68
2022/11/28 10:05:17;;;;;;;13.00;6.97;;;5.30;99.90;;;;;;5061507;28;20072;-69
2022/11/28 10:07:55;;;;;;;12.60;8.00;;;5.30;99.90;;;;;;5022392;28;20732;-68
2022/11/28 10:10:29;;;;;;;13.02;8.25;;;5.40;99.90;;;;;;5062285;28;20536;-68
2022/11/28 10:13:09;;;;;;;15.57;9.13;;;5.40;99.90;;;;;;5064443;28;20067;-69
2022/11/28 10:15:54;;;;;;;12.15;7.50;;;5.40;99.90;;;;;;5063475;28;20037;-68
2022/11/28 10:18:23;;;;;;;11.77;7.63;;;5.50;99.90;;;;;;5061734;28;20036;-68
2022/11/28 10:20:55;;;;;;;12.63;7.60;;;5.50;99.90;;;;;;5063175;28;20047;-69
2022/11/28 10:23:56;;;;;;;12.23;7.22;;;5.50;99.90;;;;;;5062765;28;20579;-69
2022/11/28 10:26:35;;;;;;;12.45;7.05;;;5.50;99.90;;;;;;5043539;28;20151;-68
2022/11/28 10:29:12;;;;;;;14.30;7.30;;;5.60;99.90;;;;;;5063272;28;20127;-69
2022/11/28 10:31:44;;;;;;;13.50;7.93;;;5.60;99.90;;;;;;5061821;28;20051;-69
2022/11/28 10:34:21;;;;;;;15.77;7.90;;;5.60;99.90;;;;;;5064429;28;20047;-69
2022/11/28 10:37:00;;;;;;;11.70;7.18;;;5.70;99.90;;;;;;5056831;28;20135;-69
2022/11/28 10:39:28;;;;;;;12.27;7.43;;;5.70;99.90;;;;;;5063848;28;20082;-68
2022/11/28 10:42:21;;;;;;;14.57;8.10;;;5.70;99.90;;;;;;5062310;28;20054;-68
2022/11/28 10:45:17;;;;;;;12.55;7.15;;;5.70;99.90;;;;;;5063882;28;20037;-69
2022/11/28 10:48:13;;;;;;;12.32;7.20;;;5.70;99.90;;;;;;5063005;28;20050;-69
2022/11/28 10:50:49;;;;;;;15.13;7.75;;;5.70;99.90;;;;;;5058313;28;20037;-69
2022/11/28 10:53:17;;;;;;;12.73;7.88;;;5.70;99.90;;;;;;5060699;28;20072;-70
2022/11/28 10:56:09;;;;;;;13.02;7.80;;;5.70;99.90;;;;;;5064142;28;20503;-70
2022/11/28 10:58:58;;;;;;;13.95;7.80;;;5.70;99.90;;;;;;5058498;28;20071;-69
2022/11/28 11:01:30;;;;;;;16.30;7.95;;;5.70;99.90;;;;;;5062350;28;20040;-70
2022/11/28 11:03:56;;;;;;;14.38;7.22;;;5.70;99.90;;;;;;5064652;28;20388;-68
2022/11/28 11:06:25;;;;;;;12.80;7.78;;;5.70;99.90;;;;;;5062735;28;20494;-68
2022/11/28 11:08:51;;;;;;;11.27;6.95;;;5.70;99.90;;;;;;5064628;28;20071;-69
2022/11/28 11:11:28;;;;;;;12.60;7.20;;;5.80;99.90;;;;;;5069225;28;20060;-69
2022/11/28 11:14:09;;;;;;;14.77;7.28;;;5.80;99.90;;;;;;5061407;28;20046;-69
2022/11/28 11:16:54;;;;;;;16.13;7.43;;;5.80;99.90;;;;;;5095404;28;20047;-69
2022/11/28 11:19:28;;;;;;;11.60;7.25;;;5.80;99.90;;;;;;5060959;28;20097;-69
2022/11/28 11:22:04;;;;;;;11.48;6.85;;;5.90;99.90;;;;;;5062708;28;20341;-69
2022/11/28 11:24:31;;;;;;;13.43;7.60;;;5.90;99.90;;;;;;5064530;28;20094;-68
2022/11/28 11:27:16;;;;;;;11.73;7.35;;;5.90;99.90;;;;;;5059899;28;20056;-68
2022/11/28 11:29:42;;;;;;;12.95;6.72;;;6.00;99.90;;;;;;5063457;28;20040;-67
2022/11/28 11:32:20;;;;;;;13.13;7.38;;;6.00;99.90;;;;;;5061111;28;20040;-67
2022/11/28 11:34:47;;;;;;;13.48;7.50;;;5.90;99.90;;;;;;5063239;28;20090;-68
2022/11/28 11:37:27;;;;;;;12.85;6.97;;;5.90;99.90;;;;;;5057261;28;20033;-67
2022/11/28 11:39:53;;;;;;;13.35;7.93;;;5.90;99.90;;;;;;5063077;28;20040;-68
2022/11/28 11:42:30;;;;;;;12.32;7.25;;;5.90;99.90;;;;;;5058417;28;20474;-67
2022/11/28 11:44:59;;;;;;;11.02;6.85;;;5.90;99.90;;;;;;5057002;28;20114;-67
2022/11/28 11:47:42;;;;;;;12.63;6.90;;;6.00;99.90;;;;;;5053886;28;20078;-71
2022/11/28 11:50:20;;;;;;;14.48;7.45;;;6.00;99.90;;;;;;5062559;28;20095;-66
2022/11/28 11:53:06;;;;;;;10.85;6.68;;;6.10;99.90;;;;;;5058712;28;20032;-68
2022/11/28 11:55:38;;;;;;;14.60;7.43;;;6.10;99.90;;;;;;5056875;28;20089;-66
2022/11/28 11:58:05;;;;;;;13.23;7.22;;;6.10;99.90;;;;;;5055813;28;20836;-67
2022/11/28 12:00:39;;;;;;;15.38;7.82;;;6.10;99.90;;;;;;5058184;28;20040;-68
2022/11/28 12:03:40;;;;;;;12.15;7.55;;;6.10;99.90;;;;;;5054540;28;20048;-67
2022/11/28 12:06:23;;;;;;;12.63;7.18;;;6.10;99.90;;;;;;5059292;28;20115;-68
2022/11/28 12:08:52;;;;;;;12.98;7.28;;;6.10;99.90;;;;;;5061250;28;20059;-73
2022/11/28 12:11:37;;;;;;;17.75;8.48;;;6.10;99.90;;;;;;5067128;28;20033;-66
2022/11/28 12:14:23;;;;;;;11.93;7.63;;;6.10;99.90;;;;;;5060673;28;20538;-68
2022/11/28 12:16:51;;;;;;;17.42;7.43;;;6.10;99.90;;;;;;5060870;28;20186;-69
2022/11/28 12:19:23;;;;;;;15.65;8.70;;;6.10;99.90;;;;;;5063733;28;20071;-69
2022/11/28 12:21:58;;;;;;;14.98;8.13;;;6.10;99.90;;;;;;5065434;28;20039;-70
2022/11/28 12:24:37;;;;;;;13.68;8.48;;;6.10;99.90;;;;;;5066942;28;20667;-69
2022/11/28 12:27:13;;;;;;;15.27;8.82;;;6.10;99.90;;;;;;5065374;28;20106;-70
2022/11/28 12:29:41;;;;;;;17.85;8.25;;;6.00;99.90;;;;;;5065708;28;20068;-70
2022/11/28 12:32:24;;;;;;;13.13;7.95;;;6.00;99.90;;;;;;5062865;28;20040;-70
2022/11/28 12:35:12;;;;;;;15.27;7.13;;;6.00;99.90;;;;;;5060492;28;20503;-69
2022/11/28 12:38:16;;;;;;;11.40;6.78;;;6.00;99.90;;;;;;5064252;28;20048;-70
2022/11/28 12:41:00;;;;;;;15.82;8.02;;;6.00;99.90;;;;;;5066077;28;20025;-70
2022/11/28 12:43:26;;;;;;;10.85;6.20;;;6.10;99.90;;;;;;5066959;28;20148;-70
2022/11/28 12:46:19;;;;;;;16.20;7.47;;;6.00;99.90;;;;;;5064776;28;20387;-70
2022/11/28 12:49:06;;;;;;;12.65;6.78;;;6.10;99.90;;;;;;5064545;28;20045;-70
2022/11/28 12:51:55;;;;;;;11.60;6.75;;;6.10;99.90;;;;;;5062919;28;20047;-69
2022/11/28 12:54:39;;;;;;;13.65;6.93;;;6.20;99.90;;;;;;5060721;28;20039;-70
2022/11/28 12:57:25;;;;;;;8.43;6.03;;;6.20;99.90;;;;;;5061097;28;20134;-68
2022/11/28 12:59:57;;;;;;;10.70;6.60;;;6.20;99.90;;;;;;5064208;28;20097;-69
2022/11/28 13:02:31;;;;;;;15.13;6.57;;;6.20;99.90;;;;;;5063960;28;20052;-71
2022/11/28 13:05:12;;;;;;;14.05;7.88;;;6.10;99.90;;;;;;5063838;28;20047;-69
2022/11/28 13:07:56;;;;;;;11.57;6.45;;;6.10;99.90;;;;;;5065016;28;20131;-69
2022/11/28 13:10:34;;;;;;;12.98;8.00;;;6.10;99.90;;;;;;5070840;28;20081;-70
2022/11/28 13:13:16;;;;;;;14.88;6.63;;;6.10;99.90;;;;;;5064410;28;20052;-70
2022/11/28 13:16:09;;;;;;;13.05;6.85;;;6.10;99.90;;;;;;5063614;28;20036;-69